Time;durP1;ratioP1;P1;durP2;ratioP2;P2;SDS_P1;SDS_P2;PMS_P1;PMS_P2;Temp;Humidity;BMP_temperature;BMP_pressure;BME280_temperature;BME280_humidity;BME280_pressure;Samples;Min_cycle;Max_cycle;Signal;HPM_P1;HPM_P2
2022/01/18 00:01:08;;;;;;;;;;;;;;;;;;7397236;19;20339;-45
2022/01/18 00:03:36;;;;;;;;;;;;;;;;;;7396893;19;19943;-44
2022/01/18 00:06:03;;;;;;;;;;;;;;;;;;7396348;19;19979;-51
2022/01/18 00:08:33;;;;;;;;;;;;;;;;;;7396537;19;19929;-45
2022/01/18 00:11:00;;;;;;;;;;;;;;;;;;7396983;19;20260;-45
2022/01/18 00:16:09;;;;;;;;;;;;;;;;;;7396257;19;19911;-45
2022/01/18 00:18:37;;;;;;;;;;;;;;;;;;7396961;19;19928;-45
2022/01/18 00:23:46;;;;;;;;;;;;;;;;;;7396181;19;19929;-44
2022/01/18 00:26:14;;;;;;;;;;;;;;;;;;7395641;19;19917;-45
2022/01/18 00:28:43;;;;;;;;;;;;;;;;;;7396450;19;19982;-46
2022/01/18 00:36:06;;;;;;;;;;;;;;;;;;7393821;19;19924;-48
2022/01/18 00:38:45;;;;;;;;;;;;;;;;;;7395571;19;20421;-45
2022/01/18 00:41:13;;;;;;;;;;;;;;;;;;7395433;19;19921;-44
2022/01/18 00:43:40;;;;;;;;;;;;;;;;;;7396224;19;19936;-46
2022/01/18 00:46:08;;;;;;;;;;;;;;;;;;7396346;19;19974;-46
2022/01/18 00:48:36;;;;;;;;;;;;;;;;;;7395488;19;20035;-48
2022/01/18 00:51:04;;;;;;;;;;;;;;;;;;7394456;19;20368;-47
2022/01/18 00:53:34;;;;;;;;;;;;;;;;;;7393003;19;19915;-44
2022/01/18 00:58:39;;;;;;;;;;;;;;;;;;7395503;19;19921;-48
2022/01/18 01:01:07;;;;;;;;;;;;;;;;;;7394715;19;19922;-45
2022/01/18 01:03:34;;;;;;;;;;;;;;;;;;7393988;19;19928;-45
2022/01/18 01:06:03;;;;;;;;;;;;;;;;;;7394678;19;19936;-45
2022/01/18 01:08:30;;;;;;;;;;;;;;;;;;7394125;19;19939;-46
2022/01/18 01:10:58;;;;;;;;;;;;;;;;;;7394910;19;20328;-47
2022/01/18 01:13:27;;;;;;;;;;;;;;;;;;7394145;19;20332;-47
2022/01/18 01:43:09;;;;;;;;;;;;;;;;;;7393872;19;19919;-50
2022/01/18 01:45:37;;;;;;;;;;;;;;;;;;7393346;19;19918;-45
2022/01/18 01:48:05;;;;;;;;;;;;;;;;;;7393082;19;19915;-45
2022/01/18 01:50:47;;;;;;;;;;;;;;;;;;7393375;19;19945;-51
2022/01/18 01:53:15;;;;;;;;;;;;;;;;;;7393332;19;19926;-48
2022/01/18 01:55:42;;;;;;;;;;;;;;;;;;7393334;19;19925;-48
2022/01/18 01:58:10;;;;;;;;;;;;;;;;;;7393284;19;19974;-44
2022/01/18 02:00:41;;;;;;;;;;;;;;;;;;7393702;19;20025;-46
2022/01/18 02:03:08;;;;;;;;;;;;;;;;;;7392840;19;19917;-49
2022/01/18 02:05:37;;;;;;;;;;;;;;;;;;7392081;19;20367;-46
2022/01/18 02:08:07;;;;;;;;;;;;;;;;;;7396931;19;19970;-43
2022/01/18 02:10:40;;;;;;;;;;;;;;;;;;7393061;19;19914;-46
2022/01/18 02:13:09;;;;;;;;;;;;;;;;;;7390489;19;20190;-50
2022/01/18 02:15:45;;;;;;;;;;;;;;;;;;7392321;19;19911;-50
2022/01/18 02:23:46;;;;;;;;;;;;;;;;;;7392855;19;19928;-48
2022/01/18 02:26:13;;;;;;;;;;;;;;;;;;7391873;19;19939;-47
2022/01/18 02:28:40;;;;;;;;;;;;;;;;;;7391843;19;19919;-49
2022/01/18 02:31:08;;;;;;;;;;;;;;;;;;7391069;19;19922;-44
2022/01/18 02:33:35;;;;;;;;;;;;;;;;;;7389641;19;19915;-49
2022/01/18 02:36:06;;;;;;;;;;;;;;;;;;7391525;19;19931;-47
2022/01/18 02:38:33;;;;;;;;;;;;;;;;;;7391416;19;20319;-46
2022/01/18 02:41:01;;;;;;;;;;;;;;;;;;7391632;19;19919;-47
2022/01/18 02:43:50;;;;;;;;;;;;;;;;;;7391178;19;19987;-45
2022/01/18 02:46:18;;;;;;;;;;;;;;;;;;7391022;19;19919;-43
2022/01/18 02:48:45;;;;;;;;;;;;;;;;;;7391847;19;19911;-49
2022/01/18 02:51:12;;;;;;;;;;;;;;;;;;7390504;19;19922;-44
2022/01/18 02:54:00;;;;;;;;;;;;;;;;;;7390844;19;19919;-44
2022/01/18 02:56:29;;;;;;;;;;;;;;;;;;7390659;19;19929;-45
2022/01/18 02:59:46;;;;;;;;;;;;;;;;;;7390274;19;19925;-45
2022/01/18 03:04:40;;;;;;;;;;;;;;;;;;7391344;19;19960;-43
2022/01/18 03:07:08;;;;;;;;;;;;;;;;;;7390375;19;19919;-44
2022/01/18 03:09:35;;;;;;;;;;;;;;;;;;7390917;19;20272;-50
2022/01/18 03:12:04;;;;;;;;;;;;;;;;;;7393810;19;19926;-44
2022/01/18 03:14:31;;;;;;;;;;;;;;;;;;7390438;19;19921;-48
2022/01/18 03:16:58;;;;;;;;;;;;;;;;;;7390159;19;19918;-44
2022/01/18 03:19:26;;;;;;;;;;;;;;;;;;7398257;19;20352;-43
2022/01/18 03:21:56;;;;;;;;;;;;;;;;;;7397810;19;19929;-43
2022/01/18 03:29:40;;;;;;;;;;;;;;;;;;7397507;19;20334;-43
2022/01/18 03:32:07;;;;;;;;;;;;;;;;;;7396601;19;19918;-50
2022/01/18 03:34:35;;;;;;;;;;;;;;;;;;7398085;19;19919;-46
2022/01/18 03:37:03;;;;;;;;;;;;;;;;;;7397639;19;19978;-46
2022/01/18 03:39:30;;;;;;;;;;;;;;;;;;7398029;19;19915;-47
2022/01/18 03:42:19;;;;;;;;;;;;;;;;;;7397846;19;19917;-45
2022/01/18 03:44:47;;;;;;;;;;;;;;;;;;7397048;19;19918;-45
2022/01/18 03:47:17;;;;;;;;;;;;;;;;;;7397667;19;19946;-44
2022/01/18 03:49:44;;;;;;;;;;;;;;;;;;7396844;19;19966;-45
2022/01/18 03:52:12;;;;;;;;;;;;;;;;;;7395490;19;19911;-44
2022/01/18 03:54:43;;;;;;;;;;;;;;;;;;7396827;19;19919;-43
2022/01/18 03:57:11;;;;;;;;;;;;;;;;;;7395127;19;19915;-45
2022/01/18 03:59:38;;;;;;;;;;;;;;;;;;7396003;19;19942;-46
2022/01/18 04:02:07;;;;;;;;;;;;;;;;;;7396400;19;19911;-45
2022/01/18 04:04:35;;;;;;;;;;;;;;;;;;7396536;19;19967;-44
2022/01/18 04:07:02;;;;;;;;;;;;;;;;;;7397049;19;19918;-45
2022/01/18 04:09:30;;;;;;;;;;;;;;;;;;7396509;19;19926;-44
2022/01/18 04:11:57;;;;;;;;;;;;;;;;;;7398601;19;19914;-45
2022/01/18 04:14:24;;;;;;;;;;;;;;;;;;7396449;19;20344;-43
2022/01/18 04:17:05;;;;;;;;;;;;;;;;;;7395894;19;19915;-45
2022/01/18 04:27:37;;;;;;;;;;;;;;;;;;7401136;19;19907;-44
2022/01/18 04:30:05;;;;;;;;;;;;;;;;;;7395952;19;19943;-42
2022/01/18 04:32:32;;;;;;;;;;;;;;;;;;7394172;19;19926;-43
2022/01/18 04:34:59;;;;;;;;;;;;;;;;;;7396112;19;19994;-43
2022/01/18 04:37:27;;;;;;;;;;;;;;;;;;7395873;19;19918;-43
2022/01/18 04:39:54;;;;;;;;;;;;;;;;;;7395812;19;19982;-45
2022/01/18 04:42:58;;;;;;;;;;;;;;;;;;7395523;19;19983;-48
2022/01/18 04:48:31;;;;;;;;;;;;;;;;;;7394919;19;19925;-44
2022/01/18 04:51:02;;;;;;;;;;;;;;;;;;7394961;19;19922;-47
2022/01/18 04:53:32;;;;;;;;;;;;;;;;;;7393083;19;19929;-45
2022/01/18 04:56:03;;;;;;;;;;;;;;;;;;7394790;19;19919;-44
2022/01/18 04:58:31;;;;;;;;;;;;;;;;;;7394077;19;19932;-44
2022/01/18 05:00:59;;;;;;;;;;;;;;;;;;7393353;19;19931;-45
2022/01/18 05:03:30;;;;;;;;;;;;;;;;;;7394674;19;19919;-43
2022/01/18 05:06:01;;;;;;;;;;;;;;;;;;7393954;19;19932;-45
2022/01/18 05:08:28;;;;;;;;;;;;;;;;;;7394405;19;19917;-44
2022/01/18 05:10:57;;;;;;;;;;;;;;;;;;7394195;19;19926;-43
2022/01/18 05:14:29;;;;;;;;;;;;;;;;;;7393522;19;19929;-44
2022/01/18 05:16:41;;;;;;;;;;;;;;;;;;7392192;19;19926;-49
2022/01/18 05:24:32;;;;;;;;;;;;;;;;;;7393867;19;19970;-43
2022/01/18 05:27:00;;;;;;;;;;;;;;;;;;7393489;19;19918;-46
2022/01/18 05:29:27;;;;;;;;;;;;;;;;;;7394523;19;19931;-45
2022/01/18 05:31:55;;;;;;;;;;;;;;;;;;7394176;19;19940;-45
2022/01/18 05:34:22;;;;;;;;;;;;;;;;;;7393704;19;19986;-44
2022/01/18 05:36:49;;;;;;;;;;;;;;;;;;7393136;19;19923;-44
2022/01/18 05:39:16;;;;;;;;;;;;;;;;;;7392861;19;19939;-44
2022/01/18 05:41:44;;;;;;;;;;;;;;;;;;7392800;19;20340;-45
2022/01/18 05:44:13;;;;;;;;;;;;;;;;;;7392725;19;19923;-45
2022/01/18 05:46:41;;;;;;;;;;;;;;;;;;7393022;19;19911;-48
2022/01/18 05:49:08;;;;;;;;;;;;;;;;;;7392818;19;19918;-49
2022/01/18 05:51:37;;;;;;;;;;;;;;;;;;7392418;19;19919;-43
2022/01/18 05:54:05;;;;;;;;;;;;;;;;;;7390142;19;19922;-43
2022/01/18 05:56:33;;;;;;;;;;;;;;;;;;7392602;19;19925;-43
2022/01/18 05:59:03;;;;;;;;;;;;;;;;;;7393392;19;19915;-46
2022/01/18 06:01:37;;;;;;;;;;;;;;;;;;7392821;19;19982;-44
2022/01/18 06:04:12;;;;;;;;;;;;;;;;;;7392894;19;20359;-43
2022/01/18 06:06:53;;;;;;;;;;;;;;;;;;7392360;19;20348;-43
2022/01/18 06:09:21;;;;;;;;;;;;;;;;;;7392462;19;19930;-43
2022/01/18 06:11:49;;;;;;;;;;;;;;;;;;7395364;19;19915;-44
2022/01/18 06:14:16;;;;;;;;;;;;;;;;;;7392088;19;19914;-42
2022/01/18 06:16:43;;;;;;;;;;;;;;;;;;7391674;19;19934;-44
2022/01/18 06:19:11;;;;;;;;;;;;;;;;;;7392787;19;19930;-43
2022/01/18 06:21:38;;;;;;;;;;;;;;;;;;7391892;19;19915;-43
2022/01/18 06:24:08;;;;;;;;;;;;;;;;;;7392640;19;19919;-51
2022/01/18 06:26:55;;;;;;;;;;;;;;;;;;7391751;19;19937;-51
2022/01/18 06:29:22;;;;;;;;;;;;;;;;;;7391204;19;19922;-43
2022/01/18 06:31:49;;;;;;;;;;;;;;;;;;7391740;19;19915;-46
2022/01/18 06:34:17;;;;;;;;;;;;;;;;;;7390441;19;19918;-45
2022/01/18 06:36:44;;;;;;;;;;;;;;;;;;7392053;19;19915;-46
2022/01/18 06:39:12;;;;;;;;;;;;;;;;;;7390624;19;19993;-47
2022/01/18 06:41:39;;;;;;;;;;;;;;;;;;7391374;19;19911;-44
2022/01/18 06:44:06;;;;;;;;;;;;;;;;;;7391096;19;19910;-50
2022/01/18 06:46:33;;;;;;;;;;;;;;;;;;7391049;19;19917;-48
2022/01/18 06:49:00;;;;;;;;;;;;;;;;;;7391366;19;19919;-44
2022/01/18 06:51:28;;;;;;;;;;;;;;;;;;7389655;19;19915;-49
2022/01/18 06:53:56;;;;;;;;;;;;;;;;;;7389024;19;19947;-44
2022/01/18 06:56:25;;;;;;;;;;;;;;;;;;7390618;19;19918;-49
2022/01/18 06:58:57;;;;;;;;;;;;;;;;;;7391218;19;19927;-44
2022/01/18 07:01:24;;;;;;;;;;;;;;;;;;7391057;19;19914;-53
2022/01/18 07:03:52;;;;;;;;;;;;;;;;;;7391279;19;19919;-44
2022/01/18 07:06:19;;;;;;;;;;;;;;;;;;7391018;19;19915;-50
2022/01/18 07:08:46;;;;;;;;;;;;;;;;;;7390997;19;19930;-46
2022/01/18 07:11:13;;;;;;;;;;;;;;;;;;7392278;19;19925;-45
2022/01/18 07:13:41;;;;;;;;;;;;;;;;;;7389270;19;19914;-45
2022/01/18 07:16:08;;;;;;;;;;;;;;;;;;7390210;19;19921;-44
2022/01/18 07:18:36;;;;;;;;;;;;;;;;;;7390481;19;20010;-44
2022/01/18 07:21:03;;;;;;;;;;;;;;;;;;7389879;19;19939;-44
2022/01/18 07:23:30;;;;;;;;;;;;;;;;;;7390529;19;19918;-46
2022/01/18 07:26:02;;;;;;;;;;;;;;;;;;7391032;19;19983;-49
2022/01/18 07:28:29;;;;;;;;;;;;;;;;;;7390693;19;19915;-46
2022/01/18 07:30:56;;;;;;;;;;;;;;;;;;7390136;19;19942;-48
2022/01/18 07:33:23;;;;;;;;;;;;;;;;;;7389029;19;19919;-45
2022/01/18 07:35:51;;;;;;;;;;;;;;;;;;7389100;19;20486;-45
2022/01/18 07:38:18;;;;;;;;;;;;;;;;;;7390312;19;19922;-45
2022/01/18 07:40:46;;;;;;;;;;;;;;;;;;7390359;19;19938;-46
2022/01/18 07:43:18;;;;;;;;;;;;;;;;;;7390071;19;19911;-46
2022/01/18 07:45:46;;;;;;;;;;;;;;;;;;7390250;19;19952;-50
2022/01/18 07:48:15;;;;;;;;;;;;;;;;;;7389256;19;19919;-45
2022/01/18 07:50:42;;;;;;;;;;;;;;;;;;7389259;19;19916;-44
2022/01/18 07:53:11;;;;;;;;;;;;;;;;;;7388633;19;19915;-43
2022/01/18 07:55:38;;;;;;;;;;;;;;;;;;7389208;19;19923;-48
2022/01/18 07:58:05;;;;;;;;;;;;;;;;;;7389043;19;20418;-44
2022/01/18 08:00:33;;;;;;;;;;;;;;;;;;7389231;19;19935;-44
2022/01/18 08:03:00;;;;;;;;;;;;;;;;;;7390051;19;19922;-44
2022/01/18 08:05:28;;;;;;;;;;;;;;;;;;7397755;19;19911;-45
2022/01/18 08:07:55;;;;;;;;;;;;;;;;;;7396619;19;19923;-45
2022/01/18 08:10:23;;;;;;;;;;;;;;;;;;7290566;19;20580;-47
2022/01/18 08:18:11;;;;;;;;;;;;;;;;;;7348334;19;10806;-43
2022/01/18 08:20:38;;;;;;;;;;;;;;;;;;7383194;19;11225;-42
2022/01/18 08:23:05;;;;;;;;;;;;;;;;;;7427361;19;850;-45
2022/01/18 08:25:34;;;;;;;;;;;;;;;;;;7428026;19;1427;-43
2022/01/18 08:28:02;;;;;;;;;;;;;;;;;;7427786;19;835;-50
2022/01/18 08:30:29;;;;;;;;;;;;;;;;;;7428672;19;910;-44
2022/01/18 08:32:56;;;;;;;;;;;;;;;;;;7427187;19;1286;-44
2022/01/18 08:35:24;;;;;;;;;;;;;;;;;;7427874;19;871;-43
2022/01/18 08:37:51;;;;;;;;;;;;;;;;;;7425248;19;1900;-43
2022/01/18 08:40:19;;;;;;;;;;;;;;;;;;7427254;19;914;-44
2022/01/18 08:42:46;;;;;;;;;;;;;;;;;;7427314;19;935;-44
2022/01/18 08:45:13;;;;;;;;;;;;;;;;;;7427709;19;883;-45
2022/01/18 08:47:44;;;;;;;;;;;;;;;;;;7427084;19;854;-44
2022/01/18 08:50:11;;;;;;;;;;;;;;;;;;7426697;19;927;-45
2022/01/18 08:52:38;;;;;;;;;;;;;;;;;;7426955;19;902;-43
2022/01/18 08:55:06;;;;;;;;;;;;;;;;;;7426737;19;1013;-44
2022/01/18 08:57:33;;;;;;;;;;;;;;;;;;7424460;19;1907;-42
2022/01/18 09:00:00;;;;;;;;;;;;;;;;;;7427089;19;934;-43
2022/01/18 09:02:28;;;;;;;;;;;;;;;;;;7427499;19;890;-43
2022/01/18 09:04:55;;;;;;;;;;;;;;;;;;7426813;19;949;-46
2022/01/18 09:07:23;;;;;;;;;;;;;;;;;;7426395;19;953;-43
2022/01/18 09:09:55;;;;;;;;;;;;;;;;;;7425890;19;977;-48
2022/01/18 09:12:22;;;;;;;;;;;;;;;;;;7427176;19;1106;-49
2022/01/18 09:14:50;;;;;;;;;;;;;;;;;;7426249;19;959;-43
2022/01/18 09:17:18;;;;;;;;;;;;;;;;;;7422858;19;1854;-45
2022/01/18 09:19:45;;;;;;;;;;;;;;;;;;7426335;19;863;-43
2022/01/18 09:22:12;;;;;;;;;;;;;;;;;;7423373;19;994;-42
2022/01/18 09:24:39;;;;;;;;;;;;;;;;;;7425920;19;899;-42
2022/01/18 09:27:07;;;;;;;;;;;;;;;;;;7426129;19;903;-46
2022/01/18 09:29:34;;;;;;;;;;;;;;;;;;7396805;19;1330;-43
2022/01/18 09:32:01;;;;;;;;;;;;;;;;;;7397259;19;942;-43
2022/01/18 09:34:29;;;;;;;;;;;;;;;;;;7398391;19;897;-42
2022/01/18 09:36:57;;;;;;;;;;;;;;;;;;7395483;19;1856;-47
2022/01/18 09:39:25;;;;;;;;;;;;;;;;;;7397047;19;911;-44
2022/01/18 09:41:54;;;;;;;;;;;;;;;;;;7397047;19;895;-47
2022/01/18 09:44:22;;;;;;;;;;;;;;;;;;7396911;19;843;-42
2022/01/18 09:46:50;;;;;;;;;;;;;;;;;;7396577;19;1625;-46
2022/01/18 09:49:18;;;;;;;;;;;;;;;;;;7396833;19;913;-46
2022/01/18 09:51:45;;;;;;;;;;;;;;;;;;7395793;19;969;-45
2022/01/18 09:54:13;;;;;;;;;;;;;;;;;;7396944;19;986;-45
2022/01/18 09:56:40;;;;;;;;;;;;;;;;;;7394368;19;1854;-43
2022/01/18 09:59:08;;;;;;;;;;;;;;;;;;7396236;19;916;-44
2022/01/18 10:01:35;;;;;;;;;;;;;;;;;;7394438;19;1013;-46
2022/01/18 10:04:22;;;;;;;;;;;;;;;;;;7396969;19;917;-49
2022/01/18 10:06:55;;;;;;;;;;;;;;;;;;7396341;19;878;-50
2022/01/18 10:09:23;;;;;;;;;;;;;;;;;;7396455;19;858;-44
2022/01/18 10:12:14;;;;;;;;;;;;;;;;;;7398522;19;1106;-45
2022/01/18 10:14:55;;;;;;;;;;;;;;;;;;7395687;19;1700;-46
2022/01/18 10:17:32;;;;;;;;;;;;;;;;;;7394569;19;1864;-45
2022/01/18 10:20:07;;;;;;;;;;;;;;;;;;7395727;19;982;-42
2022/01/18 10:22:41;;;;;;;;;;;;;;;;;;7391705;19;934;-42
2022/01/18 10:25:14;;;;;;;;;;;;;;;;;;7391724;19;922;-43
2022/01/18 10:27:41;;;;;;;;;;;;;;;;;;7391092;19;1129;-43
2022/01/18 10:30:15;;;;;;;;;;;;;;;;;;7393294;19;923;-43
2022/01/18 10:33:00;;;;;;;;;;;;;;;;;;7393047;19;1262;-42
2022/01/18 10:35:27;;;;;;;;;;;;;;;;;;7393648;19;895;-43
2022/01/18 10:37:55;;;;;;;;;;;;;;;;;;7392837;19;1852;-43
2022/01/18 10:40:26;;;;;;;;;;;;;;;;;;7393262;19;864;-42
2022/01/18 10:42:54;;;;;;;;;;;;;;;;;;7395264;19;895;-42
2022/01/18 10:45:27;;;;;;;;;;;;;;;;;;7394454;19;863;-43
2022/01/18 10:48:01;;;;;;;;;;;;;;;;;;7394620;19;926;-43
2022/01/18 10:50:33;;;;;;;;;;;;;;;;;;7395055;19;919;-42
2022/01/18 10:53:09;;;;;;;;;;;;;;;;;;7396206;19;903;-43
2022/01/18 10:55:37;;;;;;;;;;;;;;;;;;7394133;19;860;-43
2022/01/18 10:58:14;;;;;;;;;;;;;;;;;;7392371;19;1850;-43
2022/01/18 11:00:41;;;;;;;;;;;;;;;;;;7394592;19;946;-42
2022/01/18 11:03:10;;;;;;;;;;;;;;;;;;7394266;19;945;-44
2022/01/18 11:05:39;;;;;;;;;;;;;;;;;;7393551;19;867;-43
2022/01/18 11:08:07;;;;;;;;;;;;;;;;;;7316524;19;1005175;-42
2022/01/18 11:10:34;;;;;;;;;;;;;;;;;;7394646;19;1180;-43
2022/01/18 11:13:24;;;;;;;;;;;;;;;;;;7393765;19;950;-45
2022/01/18 11:16:02;;;;;;;;;;;;;;;;;;7393099;19;1035;-44
2022/01/18 11:18:31;;;;;;;;;;;;;;;;;;7392181;19;1849;-43
2022/01/18 11:21:02;;;;;;;;;;;;;;;;;;7393104;19;870;-42
2022/01/18 11:23:33;;;;;;;;;;;;;;;;;;7394143;19;883;-44
2022/01/18 11:26:01;;;;;;;;;;;;;;;;;;7393430;19;871;-45
2022/01/18 11:28:29;;;;;;;;;;;;;;;;;;7393148;19;910;-46
2022/01/18 11:30:57;;;;;;;;;;;;;;;;;;7393869;19;926;-48
2022/01/18 11:33:26;;;;;;;;;;;;;;;;;;7393140;19;1013;-42
2022/01/18 11:35:54;;;;;;;;;;;;;;;;;;7393979;19;898;-44
2022/01/18 11:38:34;;;;;;;;;;;;;;;;;;7391293;19;1841;-45
2022/01/18 11:41:06;;;;;;;;;;;;;;;;;;7393584;19;863;-45
2022/01/18 11:43:41;;;;;;;;;;;;;;;;;;7393240;19;926;-43
2022/01/18 11:46:20;;;;;;;;;;;;;;;;;;7392942;19;904;-44
2022/01/18 11:48:48;;;;;;;;;;;;;;;;;;7392602;19;1267;-42
2022/01/18 11:51:19;;;;;;;;;;;;;;;;;;7391893;19;989;-43
2022/01/18 11:56:36;;;;;;;;;;;;;;;;;;7392275;19;941;-45
2022/01/18 11:59:14;;;;;;;;;;;;;;;;;;7392702;19;918;-44
2022/01/18 12:01:49;;;;;;;;;;;;;;;;;;7390773;19;1170;-44
2022/01/18 12:04:35;;;;;;;;;;;;;;;;;;7391920;19;1277;-45
2022/01/18 12:07:02;;;;;;;;;;;;;;;;;;7392731;19;895;-47
2022/01/18 12:09:36;;;;;;;;;;;;;;;;;;7392795;19;886;-44
2022/01/18 12:12:05;;;;;;;;;;;;;;;;;;7395682;19;1094;-43
2022/01/18 12:14:33;;;;;;;;;;;;;;;;;;7392370;19;1017;-46
2022/01/18 12:17:13;;;;;;;;;;;;;;;;;;7390856;19;1849;-49
2022/01/18 12:19:42;;;;;;;;;;;;;;;;;;7391680;19;910;-43
2022/01/18 12:22:09;;;;;;;;;;;;;;;;;;7391925;19;855;-49
2022/01/18 12:24:46;;;;;;;;;;;;;;;;;;7392440;19;925;-41
2022/01/18 12:27:29;;;;;;;;;;;;;;;;;;7391181;19;1205;-44
2022/01/18 12:30:52;;;;;;;;;;;;;;;;;;7390963;19;953;-43
2022/01/18 12:33:20;;;;;;;;;;;;;;;;;;7388069;19;1189;-43
2022/01/18 12:35:47;;;;;;;;;;;;;;;;;;7391148;19;1131;-47
2022/01/18 12:38:21;;;;;;;;;;;;;;;;;;7390065;19;1842;-43
2022/01/18 12:40:49;;;;;;;;;;;;;;;;;;7390309;19;1133;-43
2022/01/18 12:46:05;;;;;;;;;;;;;;;;;;7391322;19;894;-43
2022/01/18 12:48:35;;;;;;;;;;;;;;;;;;7391414;19;943;-49
2022/01/18 12:51:07;;;;;;;;;;;;;;;;;;7391100;19;942;-45
2022/01/18 12:53:37;;;;;;;;;;;;;;;;;;7391611;19;910;-43
2022/01/18 12:56:05;;;;;;;;;;;;;;;;;;7391368;19;934;-45
2022/01/18 12:58:38;;;;;;;;;;;;;;;;;;7389442;19;1847;-46
2022/01/18 13:01:08;;;;;;;;;;;;;;;;;;7391127;19;1018;-44
2022/01/18 13:03:35;;;;;;;;;;;;;;;;;;7393194;19;912;-44
2022/01/18 13:06:04;;;;;;;;;;;;;;;;;;7397720;19;930;-49
2022/01/18 13:08:40;;;;;;;;;;;;;;;;;;7397901;19;865;-44
2022/01/18 13:11:08;;;;;;;;;;;;;;;;;;7399745;19;1286;-46
2022/01/18 13:13:35;;;;;;;;;;;;;;;;;;7397913;19;876;-45
2022/01/18 13:22:54;;;;;;;;;;;;;;;;;;7397839;19;1090;-48
2022/01/18 13:30:09;;;;;;;;;;;;;;;;;;7395197;19;1277;-44
2022/01/18 13:32:40;;;;;;;;;;;;;;;;;;7399624;19;2113;-42
2022/01/18 13:35:07;;;;;;;;;;;;;;;;;;7397451;19;2377;-45
2022/01/18 13:37:37;;;;;;;;;;;;;;;;;;7396213;19;2200;-45
2022/01/18 13:40:06;;;;;;;;;;;;;;;;;;7396884;19;1896;-45
2022/01/18 13:42:35;;;;;;;;;;;;;;;;;;7393467;19;1541;-45
2022/01/18 13:45:28;;;;;;;;;;;;;;;;;;7392732;19;2241;-47
2022/01/18 13:47:56;;;;;;;;;;;;;;;;;;7394237;19;2048;-46
2022/01/18 13:50:32;;;;;;;;;;;;;;;;;;7395160;19;2253;-43
2022/01/18 13:53:09;;;;;;;;;;;;;;;;;;7395365;19;2094;-43
2022/01/18 13:55:38;;;;;;;;;;;;;;;;;;7397136;19;2290;-50
2022/01/18 13:58:05;;;;;;;;;;;;;;;;;;7395213;19;2218;-44
2022/01/18 14:00:33;;;;;;;;;;;;;;;;;;7400032;19;2304;-51
2022/01/18 14:03:00;;;;;;;;;;;;;;;;;;7395548;19;2115;-43
2022/01/18 14:05:28;;;;;;;;;;;;;;;;;;7393928;19;1801;-44
2022/01/18 14:08:06;;;;;;;;;;;;;;;;;;7396245;19;2306;-51
2022/01/18 14:10:33;;;;;;;;;;;;;;;;;;7396927;19;2470;-51
2022/01/18 14:13:01;;;;;;;;;;;;;;;;;;7395985;19;2228;-50
2022/01/18 14:15:39;;;;;;;;;;;;;;;;;;7396286;19;1980;-49
2022/01/18 14:18:06;;;;;;;;;;;;;;;;;;7392976;19;2284;-44
2022/01/18 14:20:39;;;;;;;;;;;;;;;;;;7395588;19;2285;-46
2022/01/18 14:23:16;;;;;;;;;;;;;;;;;;7395527;19;2284;-43
2022/01/18 14:25:43;;;;;;;;;;;;;;;;;;7395679;19;2282;-45
2022/01/18 14:28:14;;;;;;;;;;;;;;;;;;7395686;19;2384;-43
2022/01/18 14:30:43;;;;;;;;;;;;;;;;;;7396215;19;2222;-44
2022/01/18 14:33:12;;;;;;;;;;;;;;;;;;7395299;19;2291;-43
2022/01/18 14:35:41;;;;;;;;;;;;;;;;;;7395427;19;2234;-43
2022/01/18 14:38:10;;;;;;;;;;;;;;;;;;7394429;19;2346;-47
2022/01/18 14:40:39;;;;;;;;;;;;;;;;;;7394679;19;2207;-44
2022/01/18 14:43:13;;;;;;;;;;;;;;;;;;7393025;19;2330;-45
2022/01/18 14:45:58;;;;;;;;;;;;;;;;;;7394382;19;2387;-47
2022/01/18 14:48:35;;;;;;;;;;;;;;;;;;7395442;19;2411;-51
2022/01/18 14:51:05;;;;;;;;;;;;;;;;;;7395225;19;2194;-47
2022/01/18 14:53:32;;;;;;;;;;;;;;;;;;7395139;19;2285;-45
2022/01/18 14:55:59;;;;;;;;;;;;;;;;;;7394830;19;1676;-48
2022/01/18 14:58:26;;;;;;;;;;;;;;;;;;7394107;19;2253;-43
2022/01/18 15:00:56;;;;;;;;;;;;;;;;;;7394434;19;1401;-46
2022/01/18 15:03:24;;;;;;;;;;;;;;;;;;7394106;19;2302;-45
2022/01/18 15:05:51;;;;;;;;;;;;;;;;;;7393559;19;2306;-44
2022/01/18 15:08:19;;;;;;;;;;;;;;;;;;7394147;19;2288;-45
2022/01/18 15:10:46;;;;;;;;;;;;;;;;;;7393920;19;2435;-52
2022/01/18 15:13:14;;;;;;;;;;;;;;;;;;7396691;19;2128;-53
2022/01/18 15:15:41;;;;;;;;;;;;;;;;;;7394724;19;2353;-48
2022/01/18 15:18:09;;;;;;;;;;;;;;;;;;7392440;19;2025;-44
2022/01/18 15:20:37;;;;;;;;;;;;;;;;;;7393870;19;2163;-44
2022/01/18 15:23:05;;;;;;;;;;;;;;;;;;7394492;19;2109;-44
2022/01/18 15:25:52;;;;;;;;;;;;;;;;;;7392388;19;2181;-52
2022/01/18 15:28:19;;;;;;;;;;;;;;;;;;7393685;19;1969;-46
2022/01/18 15:30:46;;;;;;;;;;;;;;;;;;7393137;19;2000;-46
2022/01/18 15:33:13;;;;;;;;;;;;;;;;;;7393117;19;1834;-44
2022/01/18 15:35:40;;;;;;;;;;;;;;;;;;7393586;19;2271;-53
2022/01/18 15:38:08;;;;;;;;;;;;;;;;;;7391217;19;1990;-44
2022/01/18 15:40:35;;;;;;;;;;;;;;;;;;7393544;19;2098;-49
2022/01/18 15:43:02;;;;;;;;;;;;;;;;;;7393642;19;2286;-43
2022/01/18 15:45:30;;;;;;;;;;;;;;;;;;7392044;19;2213;-46
2022/01/18 15:47:57;;;;;;;;;;;;;;;;;;7392413;19;1643;-45
2022/01/18 15:50:25;;;;;;;;;;;;;;;;;;7390385;19;2509;-45
2022/01/18 15:52:52;;;;;;;;;;;;;;;;;;7392967;19;2393;-43
2022/01/18 15:55:19;;;;;;;;;;;;;;;;;;7393298;19;2166;-46
2022/01/18 15:57:46;;;;;;;;;;;;;;;;;;7392585;19;2053;-48
2022/01/18 16:00:14;;;;;;;;;;;;;;;;;;7392335;19;2272;-44
2022/01/18 16:02:41;;;;;;;;;;;;;;;;;;7392274;19;2388;-43
2022/01/18 16:05:09;;;;;;;;;;;;;;;;;;7392105;19;2475;-47
2022/01/18 16:07:36;;;;;;;;;;;;;;;;;;7392098;19;2315;-44
2022/01/18 16:10:04;;;;;;;;;;;;;;;;;;7393080;19;2261;-45
2022/01/18 16:12:32;;;;;;;;;;;;;;;;;;7396892;19;2293;-44
2022/01/18 16:15:00;;;;;;;;;;;;;;;;;;7392511;19;2123;-44
2022/01/18 16:17:27;;;;;;;;;;;;;;;;;;7391004;19;2332;-43
2022/01/18 16:19:54;;;;;;;;;;;;;;;;;;7390214;19;2452;-44
2022/01/18 16:22:21;;;;;;;;;;;;;;;;;;7391225;19;2254;-45
2022/01/18 16:24:52;;;;;;;;;;;;;;;;;;7395858;19;1959;-43
2022/01/18 16:27:19;;;;;;;;;;;;;;;;;;7391658;19;2020;-43
2022/01/18 16:29:48;;;;;;;;;;;;;;;;;;7392170;19;2227;-45
2022/01/18 16:32:15;;;;;;;;;;;;;;;;;;7391334;19;2310;-45
2022/01/18 16:34:43;;;;;;;;;;;;;;;;;;7391818;19;1874;-45
2022/01/18 16:37:11;;;;;;;;;;;;;;;;;;7391784;19;1743;-46
2022/01/18 16:39:38;;;;;;;;;;;;;;;;;;7394984;19;2212;-44
2022/01/18 16:42:05;;;;;;;;;;;;;;;;;;7399748;19;2166;-62
2022/01/18 16:44:35;;;;;;;;;;;;;;;;;;7399495;19;1984;-49
2022/01/18 16:47:03;;;;;;;;;;;;;;;;;;7398740;19;2167;-46
2022/01/18 16:49:32;;;;;;;;;;;;;;;;;;7397106;19;1568;-43
2022/01/18 16:51:59;;;;;;;;;;;;;;;;;;7398779;19;2347;-47
2022/01/18 16:54:26;;;;;;;;;;;;;;;;;;7397084;19;2132;-45
2022/01/18 16:56:54;;;;;;;;;;;;;;;;;;7398517;19;1638;-41
2022/01/18 16:59:21;;;;;;;;;;;;;;;;;;7396084;19;2270;-48
2022/01/18 17:01:52;;;;;;;;;;;;;;;;;;7398651;19;2371;-43
2022/01/18 17:04:19;;;;;;;;;;;;;;;;;;7398440;19;2396;-43
2022/01/18 17:06:47;;;;;;;;;;;;;;;;;;7398219;19;1970;-46
2022/01/18 17:09:14;;;;;;;;;;;;;;;;;;7397792;19;2488;-44
2022/01/18 17:11:41;;;;;;;;;;;;;;;;;;7400359;19;2329;-43
2022/01/18 17:14:08;;;;;;;;;;;;;;;;;;7401181;19;2104;-45
2022/01/18 17:16:35;;;;;;;;;;;;;;;;;;7397123;19;2429;-51
2022/01/18 17:19:04;;;;;;;;;;;;;;;;;;7397297;19;2268;-51
2022/01/18 17:21:31;;;;;;;;;;;;;;;;;;7397228;19;1939;-54
2022/01/18 17:23:58;;;;;;;;;;;;;;;;;;7397505;19;2045;-44
2022/01/18 17:26:25;;;;;;;;;;;;;;;;;;7397484;19;2160;-48
2022/01/18 17:28:52;;;;;;;;;;;;;;;;;;7397155;19;1714;-49
2022/01/18 17:31:19;;;;;;;;;;;;;;;;;;7397162;19;2291;-46
2022/01/18 17:33:47;;;;;;;;;;;;;;;;;;7395401;19;2294;-44
2022/01/18 17:36:14;;;;;;;;;;;;;;;;;;7396502;19;2264;-50
2022/01/18 17:38:41;;;;;;;;;;;;;;;;;;7396223;19;2064;-45
2022/01/18 17:41:15;;;;;;;;;;;;;;;;;;7395593;19;2174;-50
2022/01/18 17:43:44;;;;;;;;;;;;;;;;;;7397096;19;2199;-45
2022/01/18 17:46:13;;;;;;;;;;;;;;;;;;7396859;19;2057;-43
2022/01/18 17:48:41;;;;;;;;;;;;;;;;;;7395350;19;2031;-50
2022/01/18 17:51:08;;;;;;;;;;;;;;;;;;7396806;19;1552;-53
2022/01/18 17:53:36;;;;;;;;;;;;;;;;;;7397359;19;2312;-47
2022/01/18 17:56:03;;;;;;;;;;;;;;;;;;7397631;19;1954;-51
2022/01/18 17:58:30;;;;;;;;;;;;;;;;;;7395486;19;2337;-44
2022/01/18 18:00:57;;;;;;;;;;;;;;;;;;7396119;19;2163;-48
2022/01/18 18:03:25;;;;;;;;;;;;;;;;;;7396184;19;2309;-48
2022/01/18 18:05:52;;;;;;;;;;;;;;;;;;7396638;19;2184;-50
2022/01/18 18:08:20;;;;;;;;;;;;;;;;;;7396159;19;2218;-49
2022/01/18 18:10:47;;;;;;;;;;;;;;;;;;7397734;19;2334;-46
2022/01/18 18:13:14;;;;;;;;;;;;;;;;;;7395868;19;1863;-44
2022/01/18 18:15:46;;;;;;;;;;;;;;;;;;7395894;19;2397;-45
2022/01/18 18:18:15;;;;;;;;;;;;;;;;;;7395974;19;2192;-44
2022/01/18 18:20:42;;;;;;;;;;;;;;;;;;7395356;19;2208;-45
2022/01/18 18:23:09;;;;;;;;;;;;;;;;;;7396112;19;1998;-43
2022/01/18 18:25:37;;;;;;;;;;;;;;;;;;7396458;19;2244;-50
2022/01/18 18:28:06;;;;;;;;;;;;;;;;;;7396288;19;2587;-46
2022/01/18 18:30:34;;;;;;;;;;;;;;;;;;7395028;19;2112;-46
2022/01/18 18:33:20;;;;;;;;;;;;;;;;;;7395055;19;2217;-48
2022/01/18 18:35:48;;;;;;;;;;;;;;;;;;7395260;19;2210;-43
2022/01/18 18:38:17;;;;;;;;;;;;;;;;;;7396971;19;2338;-49
2022/01/18 18:40:58;;;;;;;;;;;;;;;;;;7394807;19;2184;-46
2022/01/18 18:46:05;;;;;;;;;;;;;;;;;;7395450;19;2186;-53
2022/01/18 18:48:33;;;;;;;;;;;;;;;;;;7396073;19;2281;-49
2022/01/18 18:51:00;;;;;;;;;;;;;;;;;;7394526;19;2198;-52